Time;durP1;ratioP1;P1;durP2;ratioP2;P2;SDS_P1;SDS_P2;PMS_P1;PMS_P2;Temp;Humidity;BMP_temperature;BMP_pressure;BME280_temperature;BME280_humidity;BME280_pressure;Samples;Min_cycle;Max_cycle;Signal;HPM_P1;HPM_P2
2022/06/09 00:01:40;;;;;;;8.77;6.47;;;;;;;20.65;100.00;98598.94;5014070;28;20178;-88
2022/06/09 00:04:40;;;;;;;6.47;5.87;;;;;;;17.44;100.00;98091.41;5015421;28;20261;-91
2022/06/09 00:07:17;;;;;;;6.87;6.17;;;;;;;19.04;100.00;98362.97;4936854;29;20202;-89
2022/06/09 00:09:51;;;;;;;8.30;6.53;;;;;;;20.37;100.00;98611.19;4939487;29;20200;-89
2022/06/09 00:12:16;;;;;;;8.87;6.97;;;;;;;20.02;100.00;98549.75;4955920;29;20620;-88
2022/06/09 00:14:42;;;;;;;8.13;6.80;;;;;;;17.74;100.00;98181.75;4955319;29;20197;-88
2022/06/09 00:17:07;;;;;;;7.87;6.83;;;;;;;19.53;100.00;98459.34;4954921;29;20193;-88
2022/06/09 00:19:33;;;;;;;7.70;6.43;;;;;;;17.88;100.00;98193.59;4957818;29;20173;-88
2022/06/09 00:21:58;;;;;;;8.67;7.00;;;;;;;16.84;100.00;98063.50;4954042;29;20678;-87
2022/06/09 00:24:24;;;;;;;10.20;7.30;;;;;;;19.96;100.00;98594.31;4959153;28;20193;-86
2022/06/09 00:26:49;;;;;;;10.07;7.00;;;;;;;19.86;100.00;98596.97;4949875;28;20249;-89
2022/06/09 00:29:15;;;;;;;9.47;7.03;;;;;;;19.98;100.00;98596.88;4940079;29;20236;-88
2022/06/09 00:31:41;;;;;;;9.93;7.13;;;;;;;20.07;100.00;98598.53;4939931;29;20168;-89
2022/06/09 00:34:06;;;;;;;8.03;7.20;;;;;;;19.47;100.00;98508.19;4937360;29;20196;-89
2022/06/09 00:36:32;;;;;;;8.93;7.20;;;;;;;17.51;100.00;98158.75;4920243;29;20178;-88
2022/06/09 00:38:58;;;;;;;9.77;6.70;;;;;;;18.22;100.00;98232.72;4939021;29;20193;-88
2022/06/09 00:41:27;;;;;;;8.47;6.90;;;;;;;20.09;100.00;98614.78;4975906;28;20591;-88
2022/06/09 00:43:52;;;;;;;9.30;7.43;;;;;;;18.61;100.00;98388.88;5020213;28;20186;-88
2022/06/09 00:46:23;;;;;;;8.87;7.00;;;;;;;15.71;100.00;97907.03;5037761;28;20285;-88
2022/06/09 00:48:55;;;;;;;9.67;6.60;;;;;;;18.54;100.00;98332.53;5036207;28;20581;-89
2022/06/09 00:51:40;;;;;;;8.40;7.07;;;;;;;20.18;100.00;98591.59;5037650;28;20162;-89
2022/06/09 00:54:18;;;;;;;7.93;6.53;;;;;;;20.08;100.00;98588.22;5036039;28;20193;-89
2022/06/09 00:57:08;;;;;;;8.37;7.00;;;;;;;20.26;100.00;98577.84;5018049;28;20697;-89
2022/06/09 00:59:36;;;;;;;8.40;7.10;;;;;;;19.88;100.00;98508.75;5019411;28;20205;-89
2022/06/09 01:02:06;;;;;;;9.97;7.30;;;;;;;20.45;100.00;98583.69;5037135;28;20170;-88
2022/06/09 01:04:33;;;;;;;9.43;7.60;;;;;;;19.93;100.00;98489.00;5021999;28;20178;-88
2022/06/09 01:07:28;;;;;;;9.17;7.80;;;;;;;19.98;100.00;98584.03;5019199;28;20201;-87
2022/06/09 01:09:53;;;;;;;9.13;7.23;;;;;;;18.64;100.00;98336.75;4996383;28;20183;-89
2022/06/09 01:12:30;;;;;;;8.20;7.23;;;;;;;20.23;100.00;98585.56;4996893;28;20366;-90
2022/06/09 01:15:07;;;;;;;9.83;7.57;;;;;;;20.35;100.00;98587.22;4996644;28;20653;-87
2022/06/09 01:17:51;;;;;;;9.03;7.03;;;;;;;20.34;100.00;98586.34;4996290;28;20190;-88
2022/06/09 01:20:31;;;;;;;8.40;7.37;;;;;;;19.85;100.00;98551.59;4995359;28;20195;-88
2022/06/09 01:23:02;;;;;;;8.17;6.87;;;;;;;19.82;100.00;98579.84;4995793;28;20231;-88
2022/06/09 01:25:36;;;;;;;10.53;7.40;;;;;;;19.78;100.00;98578.16;4982261;28;20338;-89
2022/06/09 01:28:20;;;;;;;12.47;7.83;;;;;;;19.63;100.00;98573.13;4980470;28;20203;-88
2022/06/09 01:30:54;;;;;;;9.87;7.57;;;;;;;19.53;100.00;98579.19;4988841;28;20175;-89
2022/06/09 01:33:41;;;;;;;10.73;7.50;;;;;;;19.32;100.00;98573.25;5003246;28;20171;-90
2022/06/09 01:36:26;;;;;;;11.73;7.77;;;;;;;18.91;100.00;98487.03;4996875;28;20613;-86
2022/06/09 01:38:56;;;;;;;10.73;7.77;;;;;;;17.79;100.00;98262.78;4997868;28;20252;-90
2022/06/09 01:41:23;;;;;;;10.17;8.00;;;;;;;18.42;100.00;98407.72;4980698;28;20227;-89
2022/06/09 01:43:51;;;;;;;8.80;7.27;;;;;;;19.26;100.00;98521.06;4996291;28;20171;-91
2022/06/09 01:46:20;;;;;;;10.47;7.53;;;;;;;19.72;100.00;98578.22;5020243;28;20602;-88
2022/06/09 01:48:47;;;;;;;9.13;7.60;;;;;;;17.74;100.00;98249.16;5059521;28;20199;-88
2022/06/09 01:51:16;;;;;;;9.23;7.50;;;;;;;17.72;100.00;98255.97;5076527;28;20163;-89
2022/06/09 01:53:47;;;;;;;8.43;6.93;;;;;;;19.11;100.00;98460.44;5077274;28;20248;-89
2022/06/09 01:56:56;;;;;;;8.93;7.03;;;;;;;19.91;100.00;98572.94;5058936;28;20563;-88
2022/06/09 01:59:34;;;;;;;9.10;7.13;;;;;;;19.70;100.00;98528.56;5016697;28;20666;-88
2022/06/09 02:02:08;;;;;;;9.63;7.50;;;;;;;19.85;100.00;98574.69;5000153;28;20178;-89
2022/06/09 02:04:38;;;;;;;10.27;7.50;;;;;;;19.67;100.00;98533.72;5014564;28;20222;-88
2022/06/09 02:07:07;;;;;;;9.87;7.83;;;;;;;19.80;100.00;98571.31;4996881;28;20749;-87
2022/06/09 02:09:34;;;;;;;9.73;7.70;;;;;;;18.43;100.00;98342.78;4962161;28;20697;-89
2022/06/09 02:12:13;;;;;;;9.60;7.73;;;;;;;19.75;100.00;98565.34;4976911;28;20168;-89
2022/06/09 02:14:43;;;;;;;9.27;7.27;;;;;;;19.43;100.00;98511.63;4974284;28;20594;-89
2022/06/09 02:17:09;;;;;;;8.37;7.10;;;;;;;18.05;100.00;98289.16;5008509;28;20191;-89
2022/06/09 02:19:37;;;;;;;9.13;7.40;;;;;;;18.36;100.00;98341.13;5015886;28;20177;-88
2022/06/09 02:22:05;;;;;;;9.47;7.07;;;;;;;18.71;100.00;98412.75;5014066;28;20166;-89
2022/06/09 02:24:32;;;;;;;10.13;6.83;;;;;;;18.20;100.00;98365.09;5014522;28;20166;-88
2022/06/09 02:26:58;;;;;;;8.70;6.90;;;;;;;18.28;100.00;98363.34;5013081;28;20246;-88
2022/06/09 02:29:24;;;;;;;7.90;6.93;;;;;;;18.97;100.00;98466.50;5017079;28;20273;-89
2022/06/09 02:31:49;;;;;;;7.83;6.67;;;;;;;18.53;100.00;98371.84;5015699;28;20237;-89
2022/06/09 02:34:15;;;;;;;8.30;6.97;;;;;;;19.04;100.00;98427.13;5000514;28;20750;-89
2022/06/09 02:36:40;;;;;;;8.50;6.47;;;;;;;18.83;100.00;98389.63;5022968;28;20186;-89
2022/06/09 02:39:06;;;;;;;7.90;6.80;;;;;;;19.72;100.00;98521.72;5035856;28;20166;-89
2022/06/09 02:41:32;;;;;;;10.33;6.87;;;;;;;18.66;100.00;98327.31;5036324;28;20176;-89
2022/06/09 02:43:58;;;;;;;13.40;6.90;;;;;;;19.57;100.00;98475.59;5031828;28;20177;-88
2022/06/09 02:46:23;;;;;;;9.27;7.27;;;;;;;19.37;100.00;98450.00;5057981;28;20249;-87
2022/06/09 02:48:49;;;;;;;9.90;6.93;;;;;;;20.00;100.00;98569.44;5052333;28;20171;-88
2022/06/09 02:51:23;;;;;;;11.30;7.70;;;;;;;19.98;100.00;98554.06;5029433;28;20662;-90
2022/06/09 02:53:48;;;;;;;11.33;7.33;;;;;;;17.61;100.00;98168.13;5021840;28;20252;-89
2022/06/09 02:56:14;;;;;;;10.10;7.30;;;;;;;19.32;100.00;98451.75;5017679;28;20268;-89
2022/06/09 02:58:40;;;;;;;9.63;7.57;;;;;;;18.67;100.00;98331.59;5035183;28;20166;-88
2022/06/09 03:01:07;;;;;;;11.83;7.73;;;;;;;17.60;100.00;98151.94;5035919;28;20277;-89
2022/06/09 03:03:32;;;;;;;9.50;7.93;;;;;;;17.76;100.00;98168.09;5035126;28;20225;-90
2022/06/09 03:05:58;;;;;;;10.00;8.37;;;;;;;20.19;100.00;98576.16;5017454;28;20226;-89
2022/06/09 03:08:23;;;;;;;11.70;8.93;;;;;;;18.54;100.00;98325.66;5034457;28;20615;-88
2022/06/09 03:10:49;;;;;;;11.77;9.37;;;;;;;17.08;100.00;98041.25;5034717;28;20224;-90
2022/06/09 03:13:14;;;;;;;12.80;8.93;;;;;;;17.28;100.00;98109.41;5052488;28;20180;-88
2022/06/09 03:15:39;;;;;;;13.10;9.77;;;;;;;17.72;100.00;98140.78;5075013;28;20164;-87
2022/06/09 03:18:05;;;;;;;14.10;10.10;;;;;;;16.93;100.00;98015.75;5076534;28;20171;-89
2022/06/09 03:20:33;;;;;;;14.27;10.53;;;;;;;16.54;100.00;97969.88;5075166;28;20168;-89
2022/06/09 03:22:59;;;;;;;15.83;10.87;;;;;;;17.71;100.00;98145.91;5075146;28;20286;-89
2022/06/09 03:25:24;;;;;;;14.07;11.30;;;;;;;20.11;100.00;98547.09;5057018;28;20215;-89
2022/06/09 03:27:51;;;;;;;14.60;10.60;;;;;;;17.37;100.00;98059.03;5078398;28;20228;-90
2022/06/09 03:30:17;;;;;;;14.73;11.73;;;;;;;20.60;100.00;98601.56;5090383;28;20184;-90
2022/06/09 03:32:42;;;;;;;14.50;11.50;;;;;;;20.58;100.00;98568.13;5069834;28;20642;-89
2022/06/09 03:35:09;;;;;;;13.43;10.70;;;;;;;20.67;100.00;98597.19;5071868;28;20168;-89
2022/06/09 03:37:35;;;;;;;17.17;12.20;;;;;;;17.74;100.00;98100.69;5080279;28;20221;-88
2022/06/09 03:40:02;;;;;;;19.43;13.13;;;;;;;16.33;100.00;97921.38;5075103;28;20161;-89
2022/06/09 03:42:28;;;;;;;18.07;12.80;;;;;;;15.83;100.00;97907.03;5076266;28;20872;-89
2022/06/09 03:44:53;;;;;;;16.00;12.87;;;;;;;19.97;100.00;98585.72;5047229;28;20242;-89
2022/06/09 03:47:19;;;;;;;20.57;12.77;;;;;;;17.97;100.00;98201.25;5035155;28;20280;-89
2022/06/09 03:49:45;;;;;;;24.03;12.93;;;;;;;16.91;100.00;98012.38;5055874;28;20170;-89
2022/06/09 03:52:10;;;;;;;19.00;13.03;;;;;;;18.45;100.00;98341.09;5054854;28;20169;-88
2022/06/09 03:54:36;;;;;;;18.07;12.63;;;;;;;17.22;100.00;98099.19;5054538;28;20166;-90
2022/06/09 03:57:02;;;;;;;20.20;13.87;;;;;;;15.99;100.00;97948.69;5066968;28;20186;-90
2022/06/09 03:59:28;;;;;;;24.50;13.57;;;;;;;19.42;100.00;98458.56;5056183;28;20177;-90
2022/06/09 04:01:53;;;;;;;24.33;13.97;;;;;;;17.80;100.00;98208.16;5074829;28;20252;-90
2022/06/09 04:04:18;;;;;;;21.83;13.87;;;;;;;18.05;100.00;98202.06;5039646;28;20177;-90
2022/06/09 04:06:44;;;;;;;22.83;16.27;;;;;;;19.19;100.00;98374.00;5035959;28;20193;-88
2022/06/09 04:09:10;;;;;;;30.00;15.30;;;;;;;17.30;100.00;98071.88;5054335;28;20205;-89
2022/06/09 04:11:36;;;;;;;25.23;14.43;;;;;;;18.32;100.00;98190.81;5055168;28;20261;-88
2022/06/09 04:14:01;;;;;;;19.87;14.47;;;;;;;19.95;100.00;98491.56;5036041;28;20177;-89
2022/06/09 04:16:34;;;;;;;19.53;14.57;;;;;;;19.18;100.00;98333.81;5053740;28;20227;-89
2022/06/09 04:19:02;;;;;;;21.53;14.63;;;;;;;16.74;100.00;97951.94;5056528;28;20172;-88
2022/06/09 04:21:30;;;;;;;19.70;15.33;;;;;;;16.39;100.00;97837.94;5056565;28;20181;-90
2022/06/09 04:23:56;;;;;;;21.40;14.80;;;;;;;19.62;100.00;98340.31;5040215;28;20169;-89
2022/06/09 04:26:25;;;;;;;19.33;13.77;;;;;;;19.12;100.00;98231.22;5039979;28;20233;-89
2022/06/09 04:28:51;;;;;;;22.97;14.27;;;;;;;19.74;100.00;98314.53;5060130;28;20190;-89
2022/06/09 04:31:17;;;;;;;24.63;14.03;;;;;;;19.85;100.00;98338.38;5044801;28;20173;-87
2022/06/09 04:33:44;;;;;;;23.30;14.00;;;;;;;18.83;100.00;98205.00;5059307;28;20180;-88
2022/06/09 04:36:12;;;;;;;21.77;14.67;;;;;;;20.89;100.00;98566.09;5057970;28;20170;-89
2022/06/09 04:38:38;;;;;;;21.13;14.77;;;;;;;16.91;100.00;97973.16;5057362;28;20172;-90
2022/06/09 04:41:09;;;;;;;22.10;14.57;;;;;;;20.63;100.00;98567.25;5057025;28;20181;-90
2022/06/09 04:43:45;;;;;;;20.20;14.20;;;;;;;17.32;100.00;97986.59;5039910;28;20407;-88
2022/06/09 04:46:15;;;;;;;20.00;14.07;;;;;;;19.40;100.00;98302.00;5051073;28;20239;-90
2022/06/09 04:48:40;;;;;;;19.03;13.73;;;;;;;19.17;100.00;98265.38;5060054;28;20774;-90
2022/06/09 04:51:08;;;;;;;18.77;14.20;;;;;;;20.16;100.00;98411.69;5079153;28;20175;-90
2022/06/09 04:53:33;;;;;;;18.80;14.00;;;;;;;20.96;100.00;98530.84;5079624;28;20165;-89
2022/06/09 04:55:59;;;;;;;19.13;14.23;;;;;;;19.39;100.00;98171.97;5079807;28;20179;-90
2022/06/09 04:58:26;;;;;;;19.27;13.50;;;;;;;20.33;100.00;98349.84;5078265;28;20244;-89
2022/06/09 05:00:52;;;;;;;21.20;13.20;;;;;;;20.22;100.00;98324.25;5063409;28;20168;-87
2022/06/09 05:03:17;;;;;;;15.87;12.50;;;;;;;20.69;100.00;98508.00;5063509;28;20175;-88
2022/06/09 05:05:45;;;;;;;14.30;10.77;;;;;;;19.20;100.00;98224.31;5093555;28;20176;-88
2022/06/09 05:08:13;;;;;;;13.83;9.87;;;;;;;19.20;100.00;98282.50;5099390;28;20187;-85
2022/06/09 05:10:41;;;;;;;13.57;9.83;;;;;;;18.61;100.00;98217.13;5092007;28;20180;-89
2022/06/09 05:13:07;;;;;;;12.40;9.87;;;;;;;19.92;100.00;98347.72;5081518;28;20178;-90
2022/06/09 05:15:36;;;;;;;13.93;9.50;;;;;;;18.56;100.00;98115.50;5083307;28;20172;-89
2022/06/09 05:18:04;;;;;;;13.03;9.83;;;;;;;19.28;100.00;98203.72;5079833;28;20593;-89
2022/06/09 05:20:30;;;;;;;14.23;9.77;;;;;;;18.31;100.00;98113.94;5061650;28;20203;-88
2022/06/09 05:22:56;;;;;;;12.80;9.33;;;;;;;19.91;100.00;98359.69;5064877;28;20232;-89
2022/06/09 05:25:22;;;;;;;14.57;9.97;;;;;;;19.81;100.00;98309.28;5082343;28;20513;-88
2022/06/09 05:27:48;;;;;;;13.43;10.27;;;;;;;21.02;100.00;98559.09;5084129;28;20303;-87
2022/06/09 05:30:20;;;;;;;12.57;10.33;;;;;;;21.71;100.00;98617.47;5064565;28;20176;-89
2022/06/09 05:32:46;;;;;;;12.13;10.37;;;;;;;19.67;100.00;98210.16;5079230;28;20178;-85
2022/06/09 05:35:12;;;;;;;14.73;10.50;;;;;;;21.94;97.53;98521.84;5049330;28;20198;-86
2022/06/09 05:45:55;;;;;;;11.97;8.07;;;;;;;23.62;83.47;98603.06;5053309;28;20255;-88
2022/06/09 05:48:21;;;;;;;9.93;8.70;;;;;;;22.89;81.30;98437.56;5059497;28;20188;-87
2022/06/09 05:50:47;;;;;;;10.00;8.60;;;;;;;23.41;80.49;98476.03;5080255;28;20243;-89
2022/06/09 05:53:12;;;;;;;12.03;8.37;;;;;;;23.03;79.44;98423.50;5025580;28;20225;-88
2022/06/09 05:55:38;;;;;;;10.10;7.40;;;;;;;22.96;78.15;98396.13;5050459;28;20259;-89
2022/06/09 05:58:03;;;;;;;9.37;7.20;;;;;;;21.99;76.89;98178.97;5068891;28;20185;-89
2022/06/09 06:00:32;;;;;;;9.23;7.13;;;;;;;22.60;75.33;98223.13;5046494;28;20262;-90
2022/06/09 06:02:57;;;;;;;11.20;6.80;;;;;;;21.72;74.25;98065.28;5059052;28;20177;-90
2022/06/09 06:08:08;;;;;;;9.17;7.10;;;;;;;23.71;75.12;98464.13;5071579;28;20234;-89
2022/06/09 06:10:33;;;;;;;8.83;6.70;;;;;;;22.98;74.78;98347.88;5068819;28;20181;-89
2022/06/09 06:12:59;;;;;;;7.30;6.17;;;;;;;24.52;74.79;98607.88;5066998;28;20212;-90
2022/06/09 06:15:25;;;;;;;8.23;6.13;;;;;;;22.86;75.34;98395.47;5076116;28;20445;-87
2022/06/09 06:17:53;;;;;;;8.93;6.77;;;;;;;23.04;77.67;98520.72;5044574;28;20196;-86
2022/06/09 06:20:19;;;;;;;8.37;6.87;;;;;;;22.91;80.00;98557.09;5041977;28;20230;-88
2022/06/09 06:22:45;;;;;;;9.23;7.80;;;;;;;22.47;81.86;98514.94;5054550;28;20173;-87
2022/06/09 06:25:10;;;;;;;8.70;7.30;;;;;;;22.56;83.77;98611.06;5060036;28;20619;-88
2022/06/09 06:27:35;;;;;;;11.10;7.50;;;;;;;19.46;90.64;98179.59;5063641;28;20311;-87
2022/06/09 06:30:01;;;;;;;9.73;7.30;;;;;;;19.86;89.57;98211.66;5062260;28;20191;-87
2022/06/09 06:32:27;;;;;;;8.43;7.10;;;;;;;20.37;89.24;98229.00;5059335;28;20192;-86
2022/06/09 06:34:53;;;;;;;13.53;7.40;;;;;;;20.27;86.99;98167.44;5057224;28;20545;-87
2022/06/09 06:37:18;;;;;;;10.93;7.30;;;;;;;19.77;85.12;98070.50;5062575;28;20649;-87
2022/06/09 06:39:43;;;;;;;7.77;6.77;;;;;;;21.19;80.87;98191.66;5070462;28;20191;-88
2022/06/09 06:42:09;;;;;;;9.63;7.07;;;;;;;23.44;78.56;98519.03;5074717;28;20181;-88
2022/06/09 06:44:36;;;;;;;7.40;6.30;;;;;;;24.20;76.65;98551.75;5054906;28;20193;-86
2022/06/09 06:47:01;;;;;;;7.27;6.50;;;;;;;24.47;75.84;98597.66;5058595;28;20208;-88
2022/06/09 06:49:26;;;;;;;7.43;6.23;;;;;;;24.92;74.28;98603.41;5064140;28;20173;-85
2022/06/09 06:51:52;;;;;;;6.77;6.13;;;;;;;24.93;72.92;98605.13;5064924;28;20181;-84
2022/06/09 06:54:18;;;;;;;7.33;5.70;;;;;;;25.06;72.92;98605.63;5070727;28;20180;-87
2022/06/09 06:56:43;;;;;;;7.70;6.07;;;;;;;23.02;75.63;98358.09;5065583;28;20584;-86
2022/06/09 06:59:09;;;;;;;9.83;6.30;;;;;;;24.95;74.10;98605.91;5071481;28;20171;-87
2022/06/09 07:01:35;;;;;;;8.40;5.87;;;;;;;24.44;73.27;98499.41;5058075;28;20175;-88
2022/06/09 07:04:01;;;;;;;7.90;6.13;;;;;;;25.20;71.76;98594.00;5066560;28;20184;-89
2022/06/09 07:06:27;;;;;;;9.20;6.40;;;;;;;22.21;71.85;98150.09;5069981;28;20208;-88
2022/06/09 07:09:19;;;;;;;6.93;6.20;;;;;;;21.15;71.69;97987.53;5065993;28;20176;-88
2022/06/09 07:11:45;;;;;;;8.93;6.17;;;;;;;24.58;72.83;98587.03;5005374;28;20191;-87
2022/06/09 07:14:12;;;;;;;8.13;6.47;;;;;;;22.48;70.11;98135.72;4985983;28;20690;-87
2022/06/09 07:16:38;;;;;;;8.13;5.90;;;;;;;23.50;68.12;98252.78;4994589;28;20194;-86
2022/06/09 07:19:04;;;;;;;7.40;6.20;;;;;;;22.40;67.87;98049.09;5002341;28;20194;-87
2022/06/09 07:21:30;;;;;;;9.63;6.20;;;;;;;25.47;66.72;98493.03;4992123;28;20225;-86
2022/06/09 07:23:55;;;;;;;7.27;6.27;;;;;;;24.96;65.77;98360.75;4982109;28;20266;-87
2022/06/09 07:26:22;;;;;;;8.80;6.20;;;;;;;24.84;64.87;98276.50;5025204;28;20268;-84
2022/06/09 07:28:47;;;;;;;9.13;6.10;;;;;;;26.50;64.14;98513.03;5019115;28;20247;-84
2022/06/09 07:31:13;;;;;;;6.65;6.05;;;;;;;27.17;62.57;98566.91;5006115;28;20194;-86
2022/06/09 07:33:41;;;;;;;6.80;6.10;;;;;;;26.64;63.85;98593.91;4998357;28;20196;-86
2022/06/09 07:36:11;;;;;;;8.20;5.80;;;;;;;25.62;62.73;98378.50;4992166;28;20242;-85
2022/06/09 07:38:37;;;;;;;7.68;6.22;;;;;;;27.02;61.40;98583.09;4993749;28;20194;-86
2022/06/09 07:41:03;;;;;;;6.55;5.93;;;;;;;27.35;59.87;98584.47;4986076;28;20185;-87
2022/06/09 07:43:29;;;;;;;6.65;5.95;;;;;;;26.67;59.39;98464.78;4991494;28;20220;-88
2022/06/09 07:45:54;;;;;;;7.30;6.53;;;;;;;26.89;60.72;98581.81;4985500;28;20268;-88
2022/06/09 07:48:20;;;;;;;8.07;6.35;;;;;;;25.89;61.31;98452.81;5037295;28;20189;-86
2022/06/09 07:50:48;;;;;;;7.00;6.30;;;;;;;26.62;61.56;98559.34;5037083;28;20640;-85
2022/06/09 07:53:14;;;;;;;6.82;6.10;;;;;;;25.80;61.07;98442.72;5066523;28;20183;-83
2022/06/09 07:55:39;;;;;;;7.25;6.38;;;;;;;26.86;61.13;98589.72;5059321;28;20177;-86
2022/06/09 07:58:05;;;;;;;7.13;6.38;;;;;;;26.70;61.42;98542.59;5078542;28;20167;-86
2022/06/09 08:00:30;;;;;;;7.45;6.75;;;;;;;27.14;60.71;98584.41;5059081;28;20638;-87
2022/06/09 08:02:56;;;;;;;7.75;6.90;;;;;;;26.44;62.79;98544.41;5078673;28;20241;-86
2022/06/09 08:05:23;;;;;;;9.63;8.05;;;;;;;24.64;67.68;98496.25;5079042;28;20161;-85
2022/06/09 08:07:49;;;;;;;8.60;7.33;;;;;;;24.02;69.96;98464.25;5079255;28;20172;-86
2022/06/09 08:10:18;;;;;;;10.37;8.00;;;;;;;24.38;70.68;98501.28;5058426;28;20541;-87
2022/06/09 08:12:45;;;;;;;10.17;7.73;;;;;;;24.96;68.52;98535.09;5065893;28;20165;-85
2022/06/09 08:15:11;;;;;;;8.53;7.63;;;;;;;24.47;68.93;98390.63;5059143;28;20165;-86
2022/06/09 08:17:38;;;;;;;8.33;7.30;;;;;;;25.61;66.26;98547.91;5058340;28;20539;-86
2022/06/09 08:20:05;;;;;;;9.37;7.17;;;;;;;24.69;66.53;98416.75;5056661;28;20225;-86
2022/06/09 08:22:31;;;;;;;9.23;7.23;;;;;;;25.50;64.87;98570.72;5064480;28;20173;-86
2022/06/09 08:24:57;;;;;;;9.30;7.00;;;;;;;25.43;64.85;98582.13;5072787;28;20166;-87
2022/06/09 08:27:23;;;;;;;8.63;6.82;;;;;;;25.24;63.90;98450.50;5075959;28;20224;-87
2022/06/09 08:29:49;;;;;;;8.37;7.37;;;;;;;26.05;62.74;98572.47;5051926;28;20188;-86
2022/06/09 08:32:15;;;;;;;10.70;7.78;;;;;;;25.96;62.90;98464.66;5070200;28;20182;-86
2022/06/09 08:34:40;;;;;;;8.18;7.30;;;;;;;25.28;61.45;98318.25;5067406;28;20186;-85
2022/06/09 08:37:06;;;;;;;9.57;7.43;;;;;;;25.12;59.90;98197.03;5059210;28;20315;-84
2022/06/09 08:39:32;;;;;;;7.63;6.82;;;;;;;24.98;59.11;98160.38;5047698;28;20171;-85
2022/06/09 08:42:16;;;;;;;7.22;6.43;;;;;;;27.98;57.19;98552.56;5067292;28;20228;-84
2022/06/09 08:44:52;;;;;;;10.02;6.95;;;;;;;27.79;56.77;98444.09;5061395;28;20516;-85
2022/06/09 08:47:35;;;;;;;9.80;7.40;;;;;;;28.08;58.45;98550.47;5065669;28;20263;-84
2022/06/09 08:50:39;;;;;;;8.23;7.40;;;;;;;27.84;58.16;98473.34;5075939;28;20167;-84
2022/06/09 08:53:21;;;;;;;8.15;7.35;;;;;;;27.02;58.53;98325.84;4995195;28;20701;-85
2022/06/09 08:55:54;;;;;;;11.13;6.95;;;;;;;28.36;57.74;98531.94;4988481;28;20197;-86
2022/06/09 08:58:36;;;;;;;8.50;7.63;;;;;;;28.28;58.86;98521.88;4992553;28;20261;-87
2022/06/09 09:01:10;;;;;;;11.82;7.93;;;;;;;28.72;58.56;98524.38;4976024;28;20303;-88
2022/06/09 09:03:41;;;;;;;13.70;7.65;;;;;;;27.63;59.84;98515.84;4975565;28;20553;-86
2022/06/09 09:06:17;;;;;;;10.82;7.80;;;;;;;24.67;63.24;98157.94;4958335;28;20291;-86
2022/06/09 09:08:42;;;;;;;9.02;7.72;;;;;;;27.26;60.38;98469.56;4992331;28;20211;-85
2022/06/09 09:11:46;;;;;;;10.50;7.57;;;;;;;27.69;60.13;98513.81;4989626;28;20216;-86
2022/06/09 09:14:21;;;;;;;10.10;7.43;;;;;;;27.58;60.56;98486.56;4939894;29;20236;-83
2022/06/09 09:17:02;;;;;;;9.13;7.30;;;;;;;27.86;59.06;98505.34;4936703;29;20207;-83
2022/06/09 09:19:33;;;;;;;8.13;6.80;;;;;;;28.05;57.70;98501.97;4935794;29;20186;-84
2022/06/09 09:22:23;;;;;;;8.55;6.68;;;;;;;28.53;56.72;98501.69;4935166;29;20192;-84
2022/06/09 09:25:17;;;;;;;8.98;7.32;;;;;;;27.93;57.93;98452.19;4935929;29;20295;-85
2022/06/09 09:27:45;;;;;;;7.43;6.68;;;;;;;27.59;58.84;98501.25;4983978;28;20232;-85
2022/06/09 09:30:20;;;;;;;7.88;6.97;;;;;;;28.35;58.07;98496.44;5000093;28;20165;-85
2022/06/09 09:32:49;;;;;;;9.43;7.20;;;;;;;27.18;58.57;98329.53;4987556;28;20201;-89
2022/06/09 09:35:40;;;;;;;10.20;7.43;;;;;;;28.21;59.35;98494.38;4976469;28;20174;-86
2022/06/09 09:38:07;;;;;;;8.07;7.18;;;;;;;28.41;58.62;98486.56;4973826;28;20212;-87
2022/06/09 09:40:35;;;;;;;7.93;6.93;;;;;;;29.19;56.90;98490.06;4974339;28;20180;-85
2022/06/09 09:43:12;;;;;;;7.95;7.15;;;;;;;29.56;55.17;98483.13;4966332;28;20183;-87
2022/06/09 09:45:39;;;;;;;11.25;7.55;;;;;;;29.53;54.81;98484.13;4974939;28;20246;-86
2022/06/09 09:48:17;;;;;;;11.75;7.70;;;;;;;28.84;55.74;98488.22;4996037;28;20190;-85
2022/06/09 09:50:53;;;;;;;10.38;7.80;;;;;;;29.07;55.47;98484.53;5016174;28;20669;-86
2022/06/09 09:53:19;;;;;;;8.80;7.03;;;;;;;29.27;55.59;98474.09;5055560;28;20172;-87
2022/06/09 09:55:59;;;;;;;10.90;6.75;;;;;;;28.85;54.88;98343.09;5054927;28;20204;-88
2022/06/09 09:58:27;;;;;;;8.35;7.20;;;;;;;29.60;53.56;98480.34;5036785;28;20591;-87
2022/06/09 10:01:06;;;;;;;12.10;7.93;;;;;;;29.57;54.02;98471.78;5054082;28;20249;-88
2022/06/09 10:09:27;;;;;;;8.98;6.32;;;;;;;29.18;52.25;98427.53;5054225;28;20699;-87
2022/06/09 10:12:01;;;;;;;7.35;6.07;;;;;;;28.52;51.14;98353.28;5035316;28;20169;-87
2022/06/09 10:14:38;;;;;;;6.03;5.43;;;;;;;29.51;50.27;98467.72;5054571;28;20189;-88
2022/06/09 10:17:21;;;;;;;6.60;5.78;;;;;;;27.96;50.56;98285.50;5036200;28;20185;-90
2022/06/09 10:20:03;;;;;;;9.27;6.20;;;;;;;28.18;50.88;98241.19;5016895;28;20316;-88
2022/06/09 10:22:33;;;;;;;8.93;7.20;;;;;;;28.20;57.50;98393.78;5051155;28;20188;-87
2022/06/09 10:25:04;;;;;;;9.00;7.95;;;;;;;26.87;60.15;98264.94;5054911;28;20187;-87
2022/06/09 10:27:37;;;;;;;9.68;8.10;;;;;;;25.13;60.43;97999.25;5053919;28;20233;-88
2022/06/09 10:30:08;;;;;;;9.55;7.60;;;;;;;27.83;60.56;98454.28;5054910;28;20187;-87
2022/06/09 10:32:42;;;;;;;8.57;7.68;;;;;;;27.42;59.20;98302.56;5056464;28;20259;-88
2022/06/09 10:35:17;;;;;;;7.85;7.05;;;;;;;28.79;58.32;98442.44;5058327;28;20160;-87
2022/06/09 10:37:59;;;;;;;10.32;7.63;;;;;;;29.06;57.25;98439.38;5057451;28;20176;-87
2022/06/09 10:40:37;;;;;;;9.73;8.15;;;;;;;27.63;55.68;98188.16;5041244;28;20176;-88
2022/06/09 10:43:19;;;;;;;8.40;7.57;;;;;;;29.37;55.98;98425.78;5049070;28;20176;-88
2022/06/09 10:45:55;;;;;;;8.02;7.22;;;;;;;28.17;55.73;98216.91;5044283;28;20189;-88
2022/06/09 10:58:09;;;;;;;8.15;7.35;;;;;;;28.55;54.68;98408.69;5060537;28;20196;-87
2022/06/09 11:00:39;;;;;;;9.60;7.63;;;;;;;28.40;54.79;98323.47;5052350;28;20218;-85
2022/06/09 11:03:35;;;;;;;9.43;6.88;;;;;;;29.13;55.27;98390.41;5065687;28;20172;-85
2022/06/09 11:06:03;;;;;;;7.88;7.10;;;;;;;28.40;56.20;98289.59;4964150;28;20683;-86
2022/06/09 11:08:53;;;;;;;8.50;7.38;;;;;;;27.62;56.81;98187.28;5016916;28;20187;-87
2022/06/09 11:11:54;;;;;;;9.35;7.30;;;;;;;28.27;55.82;98285.00;4995800;28;20197;-86
2022/06/09 11:14:37;;;;;;;8.35;7.50;;;;;;;28.17;57.82;98365.28;5001728;28;20637;-87
2022/06/09 11:17:32;;;;;;;10.48;7.68;;;;;;;28.66;57.40;98371.78;5005683;28;20221;-89
2022/06/09 11:20:20;;;;;;;7.75;7.05;;;;;;;28.89;55.35;98382.00;4942065;29;20203;-87
2022/06/09 11:23:04;;;;;;;8.20;6.65;;;;;;;29.15;54.84;98375.53;4952598;29;20208;-86
2022/06/09 11:26:24;;;;;;;8.88;7.40;;;;;;;29.12;53.93;98373.94;4952943;29;20221;-85
2022/06/09 11:29:09;;;;;;;8.20;7.40;;;;;;;27.39;53.87;98081.69;4880835;29;20229;-86
2022/06/09 11:31:37;;;;;;;7.78;6.93;;;;;;;29.41;54.06;98364.75;4893950;29;20202;-87
2022/06/09 11:34:24;;;;;;;7.38;6.68;;;;;;;29.70;52.51;98369.38;4896765;29;20265;-88
2022/06/09 11:37:00;;;;;;;8.10;6.40;;;;;;;29.19;52.18;98250.19;4889999;29;20262;-88
2022/06/09 11:39:46;;;;;;;7.05;5.72;;;;;;;29.30;50.84;98221.00;4893094;29;20196;-88
2022/06/09 11:42:27;;;;;;;7.25;6.20;;;;;;;31.09;49.93;98358.56;4919040;29;20273;-88
2022/06/09 11:47:43;;;;;;;7.72;6.07;;;;;;;30.48;46.19;98057.97;4957052;28;20973;-88
2022/06/09 11:50:21;;;;;;;7.88;5.65;;;;;;;29.68;44.60;97848.56;4941675;29;20277;-89
2022/06/09 11:52:55;;;;;;;7.20;5.78;;;;;;;32.88;43.63;98361.81;4953031;29;20227;-87
2022/06/09 11:56:20;;;;;;;8.25;5.40;;;;;;;33.81;41.56;98380.28;4924571;29;20232;-88
2022/06/09 11:59:17;;;;;;;5.72;5.20;;;;;;;31.62;41.19;97915.84;4949590;29;20784;-89
2022/06/09 12:02:15;;;;;;;6.03;5.50;;;;;;;34.72;41.47;98384.53;4944938;29;20204;-88
2022/06/09 12:05:07;;;;;;;5.75;5.00;;;;;;;32.87;40.16;98040.22;4956191;28;20216;-88
2022/06/09 12:08:13;;;;;;;5.30;4.80;;;;;;;35.21;39.58;98377.47;5000480;28;20206;-88
2022/06/09 12:11:32;;;;;;;6.47;5.40;;;;;;;34.05;40.07;98209.63;4982698;28;20192;-89
2022/06/09 12:14:22;;;;;;;6.47;5.18;;;;;;;34.60;39.26;98370.47;4953016;29;20212;-88